createdAt,value
2019-01-31T00:00:34.940Z,11.3
2019-01-31T00:01:25.293Z,11.3
2019-01-31T00:02:15.820Z,11.3
2019-01-31T00:03:06.115Z,11.3
2019-01-31T00:03:56.165Z,11.3
2019-01-31T00:04:45.403Z,11.3
2019-01-31T00:05:36.013Z,11.3
2019-01-31T00:06:25.514Z,11.3
2019-01-31T00:07:15.365Z,11.3
2019-01-31T00:08:05.384Z,11.3
2019-01-31T00:08:55.977Z,11.3
2019-01-31T00:09:47.089Z,11.3
2019-01-31T00:10:35.844Z,11.3
2019-01-31T00:11:26.687Z,11.3
2019-01-31T00:12:16.229Z,11.3
2019-01-31T00:13:05.697Z,11.3
2019-01-31T00:13:56.397Z,11.3
2019-01-31T00:14:46.669Z,11.3
2019-01-31T00:15:37.111Z,11.3
2019-01-31T00:16:26.776Z,11.3
2019-01-31T00:17:15.978Z,11.3
2019-01-31T00:18:06.341Z,11.3
2019-01-31T00:18:56.388Z,11.3
2019-01-31T00:19:47.056Z,11.3
2019-01-31T00:20:36.936Z,11.3
2019-01-31T00:21:26.361Z,11.3
2019-01-31T00:22:17.189Z,11.3
2019-01-31T00:23:07.239Z,11.3
2019-01-31T00:23:57.646Z,11.3
2019-01-31T00:24:47.356Z,11.3
2019-01-31T00:25:36.848Z,11.3
2019-01-31T00:26:26.906Z,11.3
2019-01-31T00:27:16.774Z,11.3
2019-01-31T00:28:07.293Z,11.3
2019-01-31T00:28:57.906Z,11.3
2019-01-31T00:29:47.513Z,11.3
2019-01-31T00:30:37.583Z,11.3
2019-01-31T00:31:27.813Z,11.3
2019-01-31T00:32:17.100Z,11.3
2019-01-31T00:33:07.490Z,11.3
2019-01-31T00:33:57.441Z,11.3
2019-01-31T00:34:47.762Z,11.3
2019-01-31T00:35:38.363Z,11.3
2019-01-31T00:36:27.467Z,11.3
2019-01-31T00:37:17.992Z,11.3
2019-01-31T00:38:08.255Z,11.3
2019-01-31T00:39:04.913Z,11.3
2019-01-31T00:39:48.231Z,11.3
2019-01-31T00:40:37.800Z,11.3
2019-01-31T00:41:27.170Z,11.3
2019-01-31T00:42:17.838Z,11.3
2019-01-31T00:43:08.131Z,11.3
2019-01-31T00:43:57.902Z,11.3
2019-01-31T00:44:48.297Z,11.3
2019-01-31T00:45:37.499Z,11.3
2019-01-31T00:46:27.934Z,11.3
2019-01-31T00:47:18.523Z,11.3
2019-01-31T00:48:07.588Z,11.3
2019-01-31T00:48:58.370Z,11.3
2019-01-31T00:49:48.239Z,11.3
2019-01-31T00:50:38.597Z,11.3
2019-01-31T00:51:43.557Z,11.3
2019-01-31T00:52:19.019Z,11.3
2019-01-31T00:53:09.074Z,11.3
2019-01-31T00:53:59.199Z,11.3
2019-01-31T00:54:49.154Z,11.3
2019-01-31T00:55:39.489Z,11.3
2019-01-31T00:56:29.528Z,11.3
2019-01-31T00:57:18.754Z,11.3
2019-01-31T00:58:08.823Z,11.3
2019-01-31T00:58:59.144Z,11.3
2019-01-31T00:59:49.233Z,11.3
2019-01-31T01:00:39.873Z,11.3
2019-01-31T01:01:29.351Z,11.3
2019-01-31T01:02:19.143Z,11.3
2019-01-31T01:03:10.033Z,11.3
2019-01-31T01:03:59.531Z,11.3
2019-01-31T01:04:49.612Z,11.3
2019-01-31T01:05:40.037Z,11.3
2019-01-31T01:06:30.257Z,11.3
2019-01-31T01:07:20.414Z,11.3
2019-01-31T01:08:10.470Z,11.3
2019-01-31T01:09:12.081Z,11.3
2019-01-31T01:09:50.186Z,11.3
2019-01-31T01:10:40.630Z,11.3
2019-01-31T01:11:30.616Z,11.3
2019-01-31T01:12:20.426Z,11.3
2019-01-31T01:13:09.830Z,11.3
2019-01-31T01:13:59.760Z,11.3
2019-01-31T01:14:50.930Z,11.3
2019-01-31T01:15:40.094Z,11.3
2019-01-31T01:16:30.751Z,11.3
2019-01-31T01:17:20.523Z,11.3
2019-01-31T01:18:10.525Z,11.3
2019-01-31T01:19:00.556Z,11.3
2019-01-31T01:19:51.457Z,11.3
2019-01-31T01:20:40.697Z,11.3
2019-01-31T01:21:30.977Z,11.3
2019-01-31T01:22:21.181Z,11.3
2019-01-31T01:23:11.669Z,11.3
2019-01-31T01:24:00.902Z,11.3
2019-01-31T01:24:52.140Z,11.3
2019-01-31T01:25:41.321Z,11.3
2019-01-31T01:26:31.344Z,11.3
2019-01-31T01:27:21.688Z,11.2
2019-01-31T01:28:11.452Z,11.3
2019-01-31T01:29:01.265Z,11.3
2019-01-31T01:29:50.762Z,11.3
2019-01-31T01:30:41.370Z,11.3
2019-01-31T01:31:31.408Z,11.3
2019-01-31T01:32:21.757Z,11.3
2019-01-31T01:33:11.601Z,11.3
2019-01-31T01:34:01.586Z,11.3
2019-01-31T01:35:04.533Z,11.3
2019-01-31T01:35:41.709Z,11.3
2019-01-31T01:36:31.901Z,11.3
2019-01-31T01:37:21.901Z,11.3
2019-01-31T01:38:11.739Z,11.3
2019-01-31T01:39:02.761Z,11.2
2019-01-31T01:39:52.811Z,11.3
2019-01-31T01:40:42.640Z,11.3
2019-01-31T01:41:32.372Z,11.3
2019-01-31T01:42:22.431Z,11.3
2019-01-31T01:43:12.219Z,11.3
2019-01-31T01:44:02.670Z,11.3
2019-01-31T01:44:51.801Z,11.3
2019-01-31T01:45:43.321Z,11.2
2019-01-31T01:46:32.021Z,11.3
2019-01-31T01:47:22.518Z,11.3
2019-01-31T01:48:12.295Z,11.3
2019-01-31T01:49:03.540Z,11.3
2019-01-31T01:49:53.220Z,11.2
2019-01-31T01:50:43.886Z,11.2
2019-01-31T01:51:32.535Z,11.3
2019-01-31T01:52:23.783Z,11.3
2019-01-31T01:53:13.458Z,11.3
2019-01-31T01:54:03.070Z,11.3
2019-01-31T01:54:53.297Z,11.3
2019-01-31T01:55:43.917Z,11.3
2019-01-31T01:56:34.107Z,11.3
2019-01-31T01:57:23.200Z,11.2
2019-01-31T01:58:13.555Z,11.3
2019-01-31T01:59:03.991Z,11.2
2019-01-31T01:59:52.831Z,11.2
2019-01-31T02:00:44.322Z,11.3
2019-01-31T02:01:33.633Z,11.3
2019-01-31T02:02:23.825Z,11.3
2019-01-31T02:03:13.030Z,11.3
2019-01-31T02:04:03.403Z,11.3
2019-01-31T02:04:53.449Z,11.3
2019-01-31T02:05:43.782Z,11.3
2019-01-31T02:06:33.727Z,11.2
2019-01-31T02:07:24.578Z,11.3
2019-01-31T02:08:14.077Z,11.3
2019-01-31T02:09:04.577Z,11.2
2019-01-31T02:09:54.617Z,11.3
2019-01-31T02:10:43.852Z,11.3
2019-01-31T02:11:33.367Z,11.3
2019-01-31T02:12:25.090Z,11.3
2019-01-31T02:13:14.321Z,11.2
2019-01-31T02:14:04.634Z,11.3
2019-01-31T02:14:54.984Z,11.2
2019-01-31T02:15:45.407Z,11.3
2019-01-31T02:16:34.544Z,11.3
2019-01-31T02:17:24.320Z,11.3
2019-01-31T02:18:14.442Z,11.3
2019-01-31T02:19:05.249Z,11.3
2019-01-31T02:19:55.346Z,11.2
2019-01-31T02:20:45.644Z,11.3
2019-01-31T02:21:34.059Z,11.3
2019-01-31T02:22:24.921Z,11.3
2019-01-31T02:23:15.286Z,11.2
2019-01-31T02:24:04.938Z,11.3
2019-01-31T02:24:54.998Z,11.2
2019-01-31T02:25:45.453Z,11.3
2019-01-31T02:26:35.332Z,11.3
2019-01-31T02:27:25.286Z,11.3
2019-01-31T02:28:15.630Z,11.2
2019-01-31T02:29:05.257Z,11.2
2019-01-31T02:29:55.848Z,11.3
2019-01-31T02:30:45.564Z,11.3
2019-01-31T02:31:35.591Z,11.3
2019-01-31T02:32:26.247Z,11.2
2019-01-31T02:33:16.009Z,11.2
2019-01-31T02:34:06.626Z,11.2
2019-01-31T02:34:56.475Z,11.3
2019-01-31T02:35:46.498Z,11.3
2019-01-31T02:36:35.940Z,11.3
2019-01-31T02:37:26.896Z,11.3
2019-01-31T02:38:16.335Z,11.3
2019-01-31T02:39:05.882Z,11.2
2019-01-31T02:39:57.140Z,11.3
2019-01-31T02:40:46.022Z,11.3
2019-01-31T02:41:37.423Z,11.3
2019-01-31T02:42:26.522Z,11.2
2019-01-31T02:43:16.768Z,11.2
2019-01-31T02:44:06.201Z,11.3
2019-01-31T02:44:56.545Z,11.3
2019-01-31T02:45:45.742Z,11.2
2019-01-31T02:46:37.122Z,11.2
2019-01-31T02:47:26.430Z,11.3
2019-01-31T02:48:17.123Z,11.2
2019-01-31T02:49:06.701Z,11.2
2019-01-31T02:49:57.694Z,11.2
2019-01-31T02:50:47.567Z,11.3
2019-01-31T02:51:37.349Z,11.2
2019-01-31T02:52:27.334Z,11.2
2019-01-31T02:53:17.229Z,11.3
2019-01-31T02:54:06.604Z,11.3
2019-01-31T02:54:57.812Z,11.2
2019-01-31T02:55:45.916Z,11.3
2019-01-31T02:56:37.667Z,11.3
2019-01-31T02:57:27.486Z,11.2
2019-01-31T02:58:17.034Z,11.2
2019-01-31T02:59:07.046Z,11.2
2019-01-31T02:59:57.607Z,11.3
2019-01-31T03:00:48.359Z,11.2
2019-01-31T03:01:38.295Z,11.2
2019-01-31T03:02:28.287Z,11.2
2019-01-31T03:03:18.096Z,11.2
2019-01-31T03:04:08.132Z,11.2
2019-01-31T03:04:58.523Z,11.2
2019-01-31T03:08:31.075Z,11.2
2019-01-31T03:09:20.780Z,11.2
2019-01-31T03:10:11.483Z,11.2
2019-01-31T03:11:00.782Z,11.2
2019-01-31T03:11:51.561Z,11.2
2019-01-31T03:12:40.805Z,11.2
2019-01-31T03:13:31.625Z,11.2
2019-01-31T03:14:21.448Z,11.2
2019-01-31T03:15:11.765Z,11.2
2019-01-31T03:16:01.518Z,11.2
2019-01-31T03:16:51.850Z,11.2
2019-01-31T03:17:40.574Z,11.2
2019-01-31T03:18:31.725Z,11.2
2019-01-31T03:19:21.797Z,11.2
2019-01-31T03:20:11.280Z,11.2
2019-01-31T03:21:02.261Z,11.2
2019-01-31T03:21:52.247Z,11.2
2019-01-31T03:22:42.071Z,11.2
2019-01-31T03:23:32.197Z,11.2
2019-01-31T03:24:22.135Z,11.3
2019-01-31T03:25:11.715Z,11.2
2019-01-31T03:26:01.905Z,11.2
2019-01-31T03:26:52.272Z,11.2
2019-01-31T03:27:42.627Z,11.2
2019-01-31T03:28:33.116Z,11.2
2019-01-31T03:29:22.439Z,11.2
2019-01-31T03:30:13.212Z,11.2
2019-01-31T03:31:01.535Z,11.2
2019-01-31T03:31:52.890Z,11.2
2019-01-31T03:32:43.200Z,11.2
2019-01-31T03:33:33.134Z,11.2
2019-01-31T03:34:22.544Z,11.2
2019-01-31T03:35:13.014Z,11.2
2019-01-31T03:36:03.284Z,11.2
2019-01-31T03:36:52.968Z,11.2
2019-01-31T03:37:43.009Z,11.2
2019-01-31T03:38:33.906Z,11.2
2019-01-31T03:39:23.129Z,11.2
2019-01-31T03:40:15.781Z,11.2
2019-01-31T03:41:03.670Z,11.2
2019-01-31T03:41:53.646Z,11.2
2019-01-31T03:42:43.490Z,11.2
2019-01-31T03:43:33.138Z,11.2
2019-01-31T03:44:23.792Z,11.2
2019-01-31T03:45:13.434Z,11.2
2019-01-31T03:46:03.609Z,11.2
2019-01-31T03:46:53.727Z,11.2
2019-01-31T03:47:43.999Z,11.2
2019-01-31T03:48:33.616Z,11.2
2019-01-31T03:49:23.893Z,11.2
2019-01-31T03:50:15.554Z,11.2
2019-01-31T03:51:03.663Z,11.2
2019-01-31T03:51:53.788Z,11.2
2019-01-31T03:52:44.065Z,11.2
2019-01-31T03:53:33.607Z,11.2
2019-01-31T03:54:24.008Z,11.2
2019-01-31T03:55:14.212Z,11.2
2019-01-31T03:56:04.297Z,11.2
2019-01-31T03:56:55.012Z,11.2
2019-01-31T03:57:45.054Z,11.2
2019-01-31T03:58:35.042Z,11.2
2019-01-31T03:59:24.805Z,11.2
2019-01-31T04:00:13.923Z,11.2
2019-01-31T04:01:04.760Z,11.2
2019-01-31T04:01:55.297Z,11.2
2019-01-31T04:02:45.051Z,11.2
2019-01-31T04:03:37.485Z,11.2
2019-01-31T04:04:24.602Z,11.2
2019-01-31T04:05:15.182Z,11.2
2019-01-31T04:06:05.214Z,11.2
2019-01-31T04:06:55.056Z,11.2
2019-01-31T04:07:44.824Z,11.2
2019-01-31T04:08:35.169Z,11.2
2019-01-31T04:09:25.199Z,11.2
2019-01-31T04:10:27.396Z,11.2
2019-01-31T04:11:05.674Z,11.2
2019-01-31T04:11:55.362Z,11.2
2019-01-31T04:12:45.154Z,11.2
2019-01-31T04:13:36.200Z,11.2
2019-01-31T04:14:29.053Z,11.2
2019-01-31T04:15:15.728Z,11.2
2019-01-31T04:16:05.746Z,11.2
2019-01-31T04:16:56.009Z,11.2
2019-01-31T04:17:45.767Z,11.1
2019-01-31T04:18:35.977Z,11.2
2019-01-31T04:19:26.405Z,11.2
2019-01-31T04:20:16.040Z,11.2
2019-01-31T04:21:05.486Z,11.2
2019-01-31T04:21:55.373Z,11.2
2019-01-31T04:22:45.971Z,11.2
2019-01-31T04:23:36.515Z,11.2
2019-01-31T04:24:26.710Z,11.2
2019-01-31T04:25:30.939Z,11.2
2019-01-31T04:26:06.999Z,11.2
2019-01-31T04:26:56.815Z,11.2
2019-01-31T04:27:46.772Z,11.2
2019-01-31T04:28:38.451Z,11.2
2019-01-31T04:29:26.654Z,11.1
2019-01-31T04:30:16.257Z,11.2
2019-01-31T04:31:06.815Z,11.2
2019-01-31T04:31:56.826Z,11.2
2019-01-31T04:32:46.675Z,11.1
2019-01-31T04:33:37.247Z,11.1
2019-01-31T04:34:27.245Z,11.1
2019-01-31T04:35:16.773Z,11.2
2019-01-31T04:36:07.465Z,11.2
2019-01-31T04:36:57.227Z,11.1
2019-01-31T04:37:47.320Z,11.1
2019-01-31T04:38:37.548Z,11.1
2019-01-31T04:39:26.738Z,11.1
2019-01-31T04:40:17.419Z,11.1
2019-01-31T04:41:07.961Z,11.2
2019-01-31T04:41:57.469Z,11.1
2019-01-31T04:42:48.011Z,11.1
2019-01-31T04:43:37.607Z,11.1
2019-01-31T04:44:26.926Z,11.2
2019-01-31T04:45:18.014Z,11.2
2019-01-31T04:46:07.007Z,11.2
2019-01-31T04:46:58.475Z,11.2
2019-01-31T04:47:48.264Z,11.2
2019-01-31T04:48:37.652Z,11.2
2019-01-31T04:49:28.215Z,11.1
2019-01-31T04:50:18.079Z,11.1
2019-01-31T04:51:08.472Z,11.1
2019-01-31T04:51:58.121Z,11.1
2019-01-31T04:52:48.194Z,11.1
2019-01-31T04:53:38.539Z,11.1
2019-01-31T04:54:28.139Z,11.1
2019-01-31T04:55:18.689Z,11.1
2019-01-31T04:56:08.142Z,11.2
2019-01-31T04:56:58.057Z,11.1
2019-01-31T04:57:48.252Z,11.1
2019-01-31T04:58:38.869Z,11.1
2019-01-31T04:59:28.409Z,11.1
2019-01-31T05:00:18.786Z,11.1
2019-01-31T05:01:07.989Z,11.2
2019-01-31T05:01:58.684Z,11.1
2019-01-31T05:02:48.465Z,11.1
2019-01-31T05:03:38.688Z,11.1
2019-01-31T05:04:29.325Z,11.1
2019-01-31T05:05:19.455Z,11.2
2019-01-31T05:06:08.893Z,11.1
2019-01-31T05:06:59.460Z,11.1
2019-01-31T05:07:49.821Z,11.1
2019-01-31T05:08:39.883Z,11.1
2019-01-31T05:09:29.068Z,11.1
2019-01-31T05:10:19.446Z,11.1
2019-01-31T05:11:09.730Z,11.1
2019-01-31T05:11:59.796Z,11.1
2019-01-31T05:12:49.630Z,11.1
2019-01-31T05:13:40.296Z,11.1
2019-01-31T05:14:30.038Z,11.1
2019-01-31T05:15:19.790Z,11.1
2019-01-31T05:16:12.756Z,11.1
2019-01-31T05:17:00.629Z,11.1
2019-01-31T05:17:50.399Z,11.1
2019-01-31T05:18:40.196Z,11.1
2019-01-31T05:19:30.355Z,11.1
2019-01-31T05:20:20.693Z,11.1
2019-01-31T05:21:09.928Z,11.1
2019-01-31T05:21:59.937Z,11.1
2019-01-31T05:22:49.886Z,11.1
2019-01-31T05:23:40.423Z,11.1
2019-01-31T05:24:30.693Z,11.1
2019-01-31T05:25:20.255Z,11.1
2019-01-31T05:26:10.502Z,11.1
2019-01-31T05:27:00.916Z,11.1
2019-01-31T05:27:50.856Z,11.1
2019-01-31T05:28:40.695Z,11.1
2019-01-31T05:29:30.698Z,11.1
2019-01-31T05:30:20.914Z,11.1
2019-01-31T05:31:10.591Z,11.1
2019-01-31T05:32:00.364Z,11.1
2019-01-31T05:32:50.739Z,11.1
2019-01-31T05:33:40.799Z,11.1
2019-01-31T05:34:31.100Z,11.1
2019-01-31T05:35:21.299Z,11.1
2019-01-31T05:36:11.094Z,11.1
2019-01-31T05:37:01.247Z,11.1
2019-01-31T05:37:51.713Z,11.1
2019-01-31T05:38:41.075Z,11.1
2019-01-31T05:39:30.959Z,11.1
2019-01-31T05:40:21.749Z,11.1
2019-01-31T05:41:11.604Z,11.1
2019-01-31T05:42:01.795Z,11.1
2019-01-31T05:42:51.956Z,11.1
2019-01-31T05:43:42.360Z,11.1
2019-01-31T05:44:31.676Z,11.1
2019-01-31T05:45:22.093Z,11.1
2019-01-31T05:46:11.951Z,11.1
2019-01-31T05:47:01.936Z,11.1
2019-01-31T05:47:52.150Z,11.1
2019-01-31T05:48:41.955Z,11.1
2019-01-31T05:49:32.223Z,11.1
2019-01-31T05:50:21.923Z,11.1
2019-01-31T05:51:12.451Z,11.1
2019-01-31T05:52:02.061Z,11.1
2019-01-31T05:52:52.668Z,11.1
2019-01-31T05:53:42.066Z,11.1
2019-01-31T05:54:32.718Z,11.1
2019-01-31T05:55:23.143Z,11.1
2019-01-31T05:56:12.466Z,11.1
2019-01-31T05:57:02.635Z,11.1
2019-01-31T05:57:53.047Z,11.1
2019-01-31T05:58:43.300Z,11.1
2019-01-31T05:59:32.668Z,11.1
2019-01-31T06:00:23.039Z,11.1
2019-01-31T06:01:13.477Z,11.1
2019-01-31T06:02:02.794Z,11.1
2019-01-31T06:02:53.379Z,11.1
2019-01-31T06:03:42.509Z,11.1
2019-01-31T06:06:30.914Z,11.1
2019-01-31T06:07:21.586Z,11.1
2019-01-31T06:08:11.447Z,11.1
2019-01-31T06:09:01.809Z,11.1
2019-01-31T06:09:51.811Z,11.1
2019-01-31T06:10:42.115Z,11.1
2019-01-31T06:11:31.542Z,11.1
2019-01-31T06:12:21.692Z,11.1
2019-01-31T06:13:11.351Z,11.1
2019-01-31T06:14:02.131Z,11.1
2019-01-31T06:14:52.154Z,11.1
2019-01-31T06:15:41.933Z,11.1
2019-01-31T06:16:31.569Z,11.1
2019-01-31T06:17:21.936Z,11.1
2019-01-31T06:18:12.098Z,11.1
2019-01-31T06:19:02.140Z,11.1
2019-01-31T06:19:52.073Z,11.1
2019-01-31T06:20:40.761Z,11.1
2019-01-31T06:21:31.623Z,11.1
2019-01-31T06:22:21.690Z,11.1
2019-01-31T06:23:12.336Z,11.1
2019-01-31T06:24:02.652Z,11.1
2019-01-31T06:24:52.251Z,11.1
2019-01-31T06:25:42.596Z,11.1
2019-01-31T06:26:32.798Z,11.1
2019-01-31T06:27:21.733Z,11.2
2019-01-31T06:28:15.891Z,11.1
2019-01-31T06:29:03.070Z,11.1
2019-01-31T06:29:52.165Z,11.1
2019-01-31T06:30:42.598Z,11.2
2019-01-31T06:31:33.280Z,11.1
2019-01-31T06:32:22.948Z,11.1
2019-01-31T06:33:12.521Z,11.2
2019-01-31T06:34:03.538Z,11.1
2019-01-31T06:34:53.446Z,11.1
2019-01-31T06:35:42.649Z,11.1
2019-01-31T06:36:33.205Z,11.1
2019-01-31T06:37:21.937Z,11.1
2019-01-31T06:38:12.862Z,11.1
2019-01-31T06:39:02.565Z,11.1
2019-01-31T06:39:53.180Z,11.1
2019-01-31T06:40:43.562Z,11.2
2019-01-31T06:41:33.827Z,11.1
2019-01-31T06:42:23.657Z,11.2
2019-01-31T06:43:15.704Z,11.2
2019-01-31T06:44:03.732Z,11.2
2019-01-31T06:44:53.274Z,11.2
2019-01-31T06:45:43.917Z,11.2
2019-01-31T06:46:34.241Z,11.1
2019-01-31T06:47:23.092Z,11.1
2019-01-31T06:48:14.342Z,11.1
2019-01-31T06:49:03.534Z,11.1
2019-01-31T06:49:53.004Z,11.1
2019-01-31T06:50:44.173Z,11.1
2019-01-31T06:51:34.516Z,11.1
2019-01-31T06:52:24.271Z,11.2
2019-01-31T06:53:14.347Z,11.1
2019-01-31T06:54:04.395Z,11.1
2019-01-31T06:54:53.895Z,11.1
2019-01-31T06:55:44.295Z,11.2
2019-01-31T06:56:34.696Z,11.2
2019-01-31T06:57:24.046Z,11.1
2019-01-31T06:58:13.856Z,11.1
2019-01-31T06:59:03.161Z,11.1
2019-01-31T06:59:54.823Z,11.2
2019-01-31T07:00:44.578Z,11.1
2019-01-31T07:01:34.961Z,11.1
2019-01-31T07:02:24.448Z,11.1
2019-01-31T07:03:15.423Z,11.2
2019-01-31T07:04:05.358Z,11.1
2019-01-31T07:08:35.216Z,11.1
2019-01-31T07:09:06.448Z,11.1
2019-01-31T07:09:56.330Z,11.1
2019-01-31T07:10:47.010Z,11.1
2019-01-31T07:11:41.125Z,11.1
2019-01-31T07:12:27.159Z,11.1
2019-01-31T07:13:16.083Z,11.2
2019-01-31T07:14:06.125Z,11.1
2019-01-31T07:14:56.653Z,11.1
2019-01-31T07:15:46.287Z,11.1
2019-01-31T07:16:36.787Z,11.1
2019-01-31T07:17:26.578Z,11.1
2019-01-31T07:18:16.605Z,11.1
2019-01-31T07:19:06.262Z,11.1
2019-01-31T07:20:00.670Z,11.1
2019-01-31T07:20:46.799Z,11.1
2019-01-31T07:21:37.117Z,11.1
2019-01-31T07:22:28.083Z,11.1
2019-01-31T07:23:16.724Z,11.1
2019-01-31T07:24:07.432Z,11.1
2019-01-31T07:24:57.352Z,11.2
2019-01-31T07:25:47.939Z,11.1
2019-01-31T07:26:37.588Z,11.1
2019-01-31T07:27:27.821Z,11.2
2019-01-31T07:28:17.656Z,11.2
2019-01-31T07:29:07.914Z,11.1
2019-01-31T07:29:57.704Z,11.1
2019-01-31T07:30:48.026Z,11.1
2019-01-31T07:31:37.646Z,11.1
2019-01-31T07:32:28.176Z,11.2
2019-01-31T07:33:18.201Z,11.1
2019-01-31T07:34:07.756Z,11.1
2019-01-31T07:34:57.518Z,11.2
2019-01-31T07:35:48.041Z,11.2
2019-01-31T07:36:38.209Z,11.2
2019-01-31T07:37:28.161Z,11.2
2019-01-31T07:38:17.988Z,11.1
2019-01-31T07:39:07.791Z,11.2
2019-01-31T07:39:58.353Z,11.2
2019-01-31T07:40:47.615Z,11.2
2019-01-31T07:41:48.333Z,11.2
2019-01-31T07:42:27.753Z,11.2
2019-01-31T07:43:18.625Z,11.2
2019-01-31T07:44:09.041Z,11.2
2019-01-31T07:44:58.306Z,11.2
2019-01-31T07:45:49.171Z,11.2
2019-01-31T07:46:38.408Z,11.2
2019-01-31T07:47:29.288Z,11.2
2019-01-31T07:48:19.273Z,11.2
2019-01-31T07:49:08.748Z,11.2
2019-01-31T07:49:59.450Z,11.3
2019-01-31T07:50:48.611Z,11.3
2019-01-31T07:51:39.622Z,11.3
2019-01-31T07:52:29.500Z,11.3
2019-01-31T07:53:20.880Z,11.2
2019-01-31T07:54:09.652Z,11.3
2019-01-31T07:55:02.944Z,11.3
2019-01-31T07:55:50.057Z,11.3
2019-01-31T07:56:39.165Z,11.3
2019-01-31T07:57:29.582Z,11.3
2019-01-31T07:58:22.230Z,11.3
2019-01-31T07:59:09.840Z,11.3
2019-01-31T07:59:58.919Z,11.3
2019-01-31T08:00:50.204Z,11.3
2019-01-31T08:01:43.517Z,11.3
2019-01-31T08:02:29.664Z,11.3
2019-01-31T08:03:19.422Z,11.3
2019-01-31T08:04:10.869Z,11.3
2019-01-31T08:05:00.938Z,11.3
2019-01-31T08:05:49.603Z,11.3
2019-01-31T08:06:40.040Z,11.4
2019-01-31T08:07:33.786Z,11.4
2019-01-31T08:08:20.886Z,11.4
2019-01-31T08:09:10.398Z,11.4
2019-01-31T08:10:18.826Z,11.4
2019-01-31T08:10:50.214Z,11.4
2019-01-31T08:11:52.004Z,11.4
2019-01-31T08:12:30.624Z,11.4
2019-01-31T08:13:20.118Z,11.4
2019-01-31T08:14:10.737Z,11.4
2019-01-31T08:15:01.008Z,11.4
2019-01-31T08:15:50.993Z,11.4
2019-01-31T08:16:40.948Z,11.4
2019-01-31T08:17:31.324Z,11.4
2019-01-31T08:18:21.879Z,11.5
2019-01-31T08:19:11.436Z,11.5
2019-01-31T08:20:01.411Z,11.5
2019-01-31T08:20:50.475Z,11.5
2019-01-31T08:21:44.486Z,11.5
2019-01-31T08:22:31.583Z,11.5
2019-01-31T08:23:20.828Z,11.5
2019-01-31T08:24:14.166Z,11.5
2019-01-31T08:24:59.870Z,11.5
2019-01-31T08:25:51.311Z,11.6
2019-01-31T08:26:41.870Z,11.5
2019-01-31T08:27:31.987Z,11.5
2019-01-31T08:28:22.273Z,11.5
2019-01-31T08:29:12.049Z,11.5
2019-01-31T08:30:01.675Z,11.5
2019-01-31T08:30:51.665Z,11.5
2019-01-31T08:31:42.515Z,11.5
2019-01-31T08:32:32.281Z,11.5
2019-01-31T08:33:21.837Z,11.6
2019-01-31T08:34:12.099Z,11.6
2019-01-31T08:35:01.514Z,11.5
2019-01-31T08:35:51.970Z,11.6
2019-01-31T08:36:42.118Z,11.6
2019-01-31T08:37:32.122Z,11.6
2019-01-31T08:38:22.425Z,11.6
2019-01-31T08:39:12.580Z,11.6
2019-01-31T08:40:02.869Z,11.6
2019-01-31T08:40:53.119Z,11.6
2019-01-31T08:41:42.911Z,11.6
2019-01-31T08:42:33.074Z,11.6
2019-01-31T08:43:25.794Z,11.6
2019-01-31T08:44:13.397Z,11.6
2019-01-31T08:45:03.285Z,11.6
2019-01-31T08:45:53.497Z,11.6
2019-01-31T08:46:43.391Z,11.6
2019-01-31T08:47:32.909Z,11.6
2019-01-31T08:48:23.367Z,11.6
2019-01-31T08:49:13.159Z,11.6
2019-01-31T08:50:04.044Z,11.6
2019-01-31T08:50:52.518Z,11.7
2019-01-31T08:51:43.809Z,11.7
2019-01-31T08:52:33.249Z,11.7
2019-01-31T08:53:22.650Z,11.7
2019-01-31T08:54:13.852Z,11.8
2019-01-31T08:55:04.651Z,11.8
2019-01-31T08:55:55.271Z,11.8
2019-01-31T08:56:42.843Z,11.9
2019-01-31T08:57:33.894Z,11.9
2019-01-31T08:58:24.366Z,11.9
2019-01-31T08:59:13.353Z,11.9
2019-01-31T09:00:03.406Z,11.9
2019-01-31T09:00:53.517Z,12
2019-01-31T09:01:44.336Z,12
2019-01-31T09:02:34.071Z,12
2019-01-31T09:03:24.238Z,12.1
2019-01-31T09:04:14.466Z,12.1
2019-01-31T09:05:04.861Z,12.1
2019-01-31T09:05:53.815Z,12.1
2019-01-31T09:06:44.906Z,12.2
2019-01-31T09:07:36.838Z,12.3
2019-01-31T09:08:24.285Z,12.3
2019-01-31T09:09:14.665Z,12.3
2019-01-31T09:10:05.608Z,12.4
2019-01-31T09:10:54.685Z,12.4
2019-01-31T09:11:44.398Z,12.4
2019-01-31T09:12:35.037Z,12.4
2019-01-31T09:13:25.110Z,12.4
2019-01-31T09:14:14.975Z,12.4
2019-01-31T09:15:05.357Z,12.5
2019-01-31T09:15:55.548Z,12.6
2019-01-31T09:16:45.335Z,12.7
2019-01-31T09:17:34.461Z,12.8
2019-01-31T09:18:25.767Z,12.9
2019-01-31T09:19:15.582Z,13.1
2019-01-31T09:20:04.810Z,13.1
2019-01-31T09:20:55.921Z,13.3
2019-01-31T09:21:45.012Z,13.3
2019-01-31T09:22:35.222Z,13.4
2019-01-31T09:23:25.809Z,13.4
2019-01-31T09:24:14.879Z,13.4
2019-01-31T09:25:05.292Z,13.5
2019-01-31T09:25:55.744Z,13.5
2019-01-31T09:26:45.864Z,13.6
2019-01-31T09:27:36.116Z,13.6
2019-01-31T09:28:25.068Z,13.6
2019-01-31T09:29:15.122Z,13.6
2019-01-31T09:30:06.826Z,13.6
2019-01-31T09:30:56.632Z,13.7
2019-01-31T09:31:45.586Z,13.6
2019-01-31T09:32:36.454Z,13.7
2019-01-31T09:33:26.531Z,13.7
2019-01-31T09:34:15.456Z,13.7
2019-01-31T09:35:10.101Z,13.8
2019-01-31T09:35:56.964Z,13.8
2019-01-31T09:36:46.544Z,13.8
2019-01-31T09:37:36.531Z,13.8
2019-01-31T09:38:26.570Z,13.8
2019-01-31T09:39:17.496Z,13.8
2019-01-31T09:40:07.577Z,13.8
2019-01-31T09:40:56.748Z,13.8
2019-01-31T09:41:47.665Z,13.8
2019-01-31T09:42:36.851Z,13.9
2019-01-31T09:43:27.220Z,13.9
2019-01-31T09:44:17.555Z,13.9
2019-01-31T09:45:11.244Z,13.9
2019-01-31T09:45:57.184Z,13.9
2019-01-31T09:46:47.093Z,14
2019-01-31T09:47:39.663Z,14
2019-01-31T09:48:27.301Z,14
2019-01-31T09:49:17.635Z,14.1
2019-01-31T09:50:07.080Z,14.1
2019-01-31T09:50:56.793Z,14.1
2019-01-31T09:51:47.550Z,14.1
2019-01-31T09:52:36.202Z,14
2019-01-31T09:53:27.093Z,14
2019-01-31T09:54:16.693Z,14
2019-01-31T09:55:08.642Z,14
2019-01-31T09:55:57.348Z,14
2019-01-31T09:56:47.893Z,14
2019-01-31T09:57:37.967Z,13.9
2019-01-31T09:58:31.158Z,13.9
2019-01-31T09:59:18.152Z,13.8
2019-01-31T10:00:08.177Z,13.7
2019-01-31T10:00:57.987Z,13.7
2019-01-31T10:01:48.859Z,13.6
2019-01-31T10:02:37.714Z,13.6
2019-01-31T10:03:28.094Z,13.6
2019-01-31T10:04:18.437Z,13.6
2019-01-31T10:05:08.737Z,13.6
2019-01-31T10:07:31.006Z,13.5
2019-01-31T10:08:21.024Z,13.5
2019-01-31T10:09:10.799Z,13.4
2019-01-31T10:10:00.660Z,13.4
2019-01-31T10:10:52.554Z,13.3
2019-01-31T10:11:40.722Z,13.2
2019-01-31T10:12:44.847Z,13.2
2019-01-31T10:13:21.648Z,13.1
2019-01-31T10:14:11.598Z,13.1
2019-01-31T10:15:02.533Z,13.1
2019-01-31T10:15:51.298Z,13
2019-01-31T10:16:42.365Z,12.9
2019-01-31T10:17:32.055Z,12.9
2019-01-31T10:18:23.252Z,12.9
2019-01-31T10:19:11.545Z,12.9
2019-01-31T10:20:02.156Z,12.9
2019-01-31T10:20:52.087Z,12.9
2019-01-31T10:21:42.345Z,12.8
2019-01-31T10:22:33.633Z,12.8
2019-01-31T10:23:22.258Z,12.8
2019-01-31T10:24:12.905Z,12.8
2019-01-31T10:25:03.510Z,12.8
2019-01-31T10:25:51.639Z,12.8
2019-01-31T10:26:42.210Z,12.8
2019-01-31T10:27:31.184Z,12.7
2019-01-31T10:28:21.758Z,12.7
2019-01-31T10:29:12.133Z,12.7
2019-01-31T10:30:02.611Z,12.7
2019-01-31T10:30:51.968Z,12.7
2019-01-31T10:31:42.003Z,12.6
2019-01-31T10:32:32.635Z,12.7
2019-01-31T10:33:22.195Z,12.7
2019-01-31T10:34:12.544Z,12.6
2019-01-31T10:35:02.815Z,12.6
2019-01-31T10:35:52.562Z,12.6
2019-01-31T10:36:42.473Z,12.6
2019-01-31T10:37:32.408Z,12.6
2019-01-31T10:38:23.152Z,12.6
2019-01-31T10:39:12.810Z,12.6
2019-01-31T10:40:02.868Z,12.6
2019-01-31T10:40:52.946Z,12.6
2019-01-31T10:41:42.834Z,12.6
2019-01-31T10:42:33.125Z,12.5
2019-01-31T10:43:22.884Z,12.5
2019-01-31T10:44:13.012Z,12.6
2019-01-31T10:45:03.606Z,12.6
2019-01-31T10:45:52.499Z,12.6
2019-01-31T10:46:42.896Z,12.5
2019-01-31T10:47:33.251Z,12.5
2019-01-31T10:48:22.929Z,12.5
2019-01-31T10:49:13.499Z,12.5
2019-01-31T10:50:03.574Z,12.5
2019-01-31T10:50:53.934Z,12.5
2019-01-31T10:51:43.429Z,12.5
2019-01-31T10:52:33.521Z,12.5
2019-01-31T10:53:24.168Z,12.5
2019-01-31T10:54:14.291Z,12.4
2019-01-31T10:55:04.236Z,12.4
2019-01-31T10:55:52.616Z,12.4
2019-01-31T10:56:46.038Z,12.4
2019-01-31T10:57:34.125Z,12.4
2019-01-31T10:58:24.294Z,12.4
2019-01-31T10:59:14.760Z,12.4
2019-01-31T11:00:04.336Z,12.4
2019-01-31T11:00:54.061Z,12.4
2019-01-31T11:01:44.201Z,12.4
2019-01-31T11:02:34.036Z,12.4
2019-01-31T11:03:23.406Z,12.4
2019-01-31T11:04:14.068Z,12.4
2019-01-31T11:05:04.728Z,12.4
2019-01-31T11:05:54.693Z,12.4
2019-01-31T11:06:44.771Z,12.4
2019-01-31T11:07:34.658Z,12.4
2019-01-31T11:08:24.950Z,12.4
2019-01-31T11:09:13.723Z,12.4
2019-01-31T11:10:04.180Z,12.3
2019-01-31T11:10:53.872Z,12.3
2019-01-31T11:11:44.828Z,12.3
2019-01-31T11:12:34.405Z,12.4
2019-01-31T11:13:24.760Z,12.3
2019-01-31T11:14:14.920Z,12.3
2019-01-31T11:15:04.347Z,12.3
2019-01-31T11:15:54.950Z,12.3
2019-01-31T11:16:46.015Z,12.3